Terminal Aerodrome Forecast
Issued by NWS

Home | Current Version | Previous Version | Text Only | Print | Product List | Glossary On
Versions: 1 2 3 4 5 6 7 8 9 10 11 12 13 14 15 16 17 18
000
FTUS43 KMQT 191100
TAFSAW
TAF
KSAW 191123Z 1912/2012 19010KT P6SM OVC010
     FM191400 20017G24KT P6SM BKN015
     FM191700 20019G27KT P6SM BKN020
     FM191900 20021G30KT P6SM BKN100
     FM200000 20014G21KT P6SM -SHRA BKN050
     FM200300 20012G18KT P6SM -SHRA BKN025
     FM200600 20011KT P6SM OVC008
      AMD LTD TO CLD VIS AND WIND TIL 191000=

USA.gov is the U.S. government's official web portal to all federal, state and local government web resources and services.